createdAt,value
2023-04-14T00:00:18.689Z,79.51
2023-04-14T00:02:48.009Z,79.44
2023-04-14T00:05:16.633Z,79.36
2023-04-14T00:07:46.994Z,79.87
2023-04-14T00:10:15.533Z,79.50
2023-04-14T00:12:43.862Z,79.77
2023-04-14T00:15:12.944Z,79.44
2023-04-14T00:17:41.382Z,80.01
2023-04-14T00:20:11.218Z,80.06
2023-04-14T00:22:39.629Z,79.52
2023-04-14T00:25:10.320Z,79.52
2023-04-14T00:27:38.726Z,79.71
2023-04-14T00:30:08.752Z,80.35
2023-04-14T00:32:37.220Z,80.20
2023-04-14T00:35:06.466Z,79.73
2023-04-14T00:37:34.976Z,80.49
2023-04-14T00:40:03.626Z,80.04
2023-04-14T00:42:33.581Z,80.75
2023-04-14T00:45:01.950Z,80.38
2023-04-14T00:47:30.581Z,80.79
2023-04-14T00:50:00.658Z,80.99
2023-04-14T00:52:29.256Z,80.14
2023-04-14T00:54:58.637Z,80.68
2023-04-14T00:57:28.148Z,80.66
2023-04-14T00:59:59.991Z,81.08
2023-04-14T01:02:29.046Z,80.74
2023-04-14T01:04:58.156Z,80.98
2023-04-14T01:07:28.615Z,81.06
2023-04-14T01:09:58.773Z,81.24
2023-04-14T01:12:46.473Z,81.45
2023-04-14T01:15:25.591Z,80.73
2023-04-14T01:18:04.940Z,81.90
2023-04-14T01:20:40.965Z,81.20
2023-04-14T01:23:12.435Z,81.39
2023-04-14T01:26:22.051Z,80.99
2023-04-14T01:29:26.205Z,81.81
2023-04-14T01:32:05.572Z,81.35
2023-04-14T01:34:40.244Z,81.11
2023-04-14T01:37:15.523Z,80.83
2023-04-14T01:39:51.979Z,80.96
2023-04-14T01:42:25.034Z,81.15
2023-04-14T01:44:59.737Z,80.87
2023-04-14T01:47:30.986Z,80.99
2023-04-14T01:50:02.487Z,81.32
2023-04-14T01:52:32.603Z,80.73
2023-04-14T01:55:05.778Z,80.51
2023-04-14T01:57:35.797Z,80.81
2023-04-14T02:00:05.549Z,80.77
2023-04-14T02:02:37.855Z,80.74
2023-04-14T02:05:09.063Z,80.51
2023-04-14T02:07:37.985Z,80.48
2023-04-14T02:10:10.902Z,80.63
2023-04-14T02:12:42.204Z,80.12
2023-04-14T02:15:16.133Z,80.40
2023-04-14T02:17:48.152Z,80.26
2023-04-14T02:20:17.587Z,80.52
2023-04-14T02:22:45.959Z,80.26
2023-04-14T02:25:14.748Z,80.32
2023-04-14T02:27:50.763Z,80.34
2023-04-14T02:30:25.021Z,79.91
2023-04-14T02:33:03.404Z,80.36
2023-04-14T02:35:38.359Z,80.00
2023-04-14T02:38:17.276Z,79.66
2023-04-14T02:40:46.261Z,79.70
2023-04-14T02:43:20.219Z,79.71
2023-04-14T02:45:50.996Z,80.20
2023-04-14T02:48:26.056Z,80.04
2023-04-14T02:50:56.404Z,80.15
2023-04-14T02:53:27.738Z,80.06
2023-04-14T02:55:56.398Z,80.11
2023-04-14T02:58:25.083Z,79.60
2023-04-14T03:00:54.650Z,79.76
2023-04-14T03:03:28.599Z,79.71
2023-04-14T03:05:57.643Z,79.10
2023-04-14T03:08:27.827Z,79.59
2023-04-14T03:10:57.347Z,79.46
2023-04-14T03:13:28.833Z,79.51
2023-04-14T03:15:58.647Z,79.17
2023-04-14T03:18:31.302Z,79.14
2023-04-14T03:21:02.495Z,79.17
2023-04-14T03:23:31.317Z,79.10
2023-04-14T03:26:00.776Z,79.51
2023-04-14T03:28:31.581Z,79.46
2023-04-14T03:31:03.915Z,79.55
2023-04-14T03:33:34.721Z,79.49
2023-04-14T03:36:04.475Z,79.31
2023-04-14T03:38:34.720Z,79.53
2023-04-14T03:41:05.620Z,80.00
2023-04-14T03:43:36.138Z,79.72
2023-04-14T03:46:06.254Z,79.87
2023-04-14T03:48:42.957Z,79.76
2023-04-14T03:51:15.520Z,80.00
2023-04-14T03:53:46.872Z,79.33
2023-04-14T03:56:17.156Z,80.01
2023-04-14T03:58:49.727Z,80.31
2023-04-14T04:01:20.098Z,80.01
2023-04-14T04:03:50.952Z,80.22
2023-04-14T04:06:19.967Z,79.98
2023-04-14T04:08:50.907Z,79.95
2023-04-14T04:11:22.186Z,80.50
2023-04-14T04:13:51.219Z,80.23
2023-04-14T04:16:22.511Z,80.69
2023-04-14T04:18:52.840Z,80.48
2023-04-14T04:21:22.785Z,80.45
2023-04-14T04:23:56.042Z,80.97
2023-04-14T04:26:27.339Z,80.68
2023-04-14T04:29:00.535Z,81.21
2023-04-14T04:31:29.917Z,81.45
2023-04-14T04:34:00.000Z,81.20
2023-04-14T04:36:29.624Z,81.15
2023-04-14T04:38:58.772Z,81.63
2023-04-14T04:41:29.808Z,81.61
2023-04-14T04:43:59.155Z,81.25
2023-04-14T04:46:47.382Z,81.84
2023-04-14T04:49:17.143Z,82.28
2023-04-14T04:51:45.840Z,81.97
2023-04-14T04:54:14.424Z,81.79
2023-04-14T04:56:42.813Z,81.90
2023-04-14T04:59:11.427Z,82.59
2023-04-14T05:01:39.955Z,82.24
2023-04-14T05:04:08.630Z,81.75
2023-04-14T05:06:38.709Z,82.65
2023-04-14T05:09:14.534Z,82.78
2023-04-14T05:11:43.467Z,82.23
2023-04-14T05:14:12.964Z,82.25
2023-04-14T05:16:41.350Z,82.76
2023-04-14T05:19:09.918Z,82.28
2023-04-14T05:21:39.901Z,82.25
2023-04-14T05:24:14.581Z,82.16
2023-04-14T05:27:01.781Z,81.91
2023-04-14T05:29:32.146Z,81.85
2023-04-14T05:32:00.724Z,81.85
2023-04-14T05:34:29.378Z,81.68
2023-04-14T05:37:00.255Z,81.96
2023-04-14T05:39:36.766Z,81.82
2023-04-14T05:42:05.691Z,81.94
2023-04-14T05:44:34.985Z,82.25
2023-04-14T05:47:03.927Z,81.79
2023-04-14T05:49:32.487Z,81.93
2023-04-14T05:52:02.219Z,81.14
2023-04-14T05:54:35.400Z,81.61
2023-04-14T05:57:03.788Z,81.49
2023-04-14T05:59:32.133Z,80.22
2023-04-14T06:02:04.921Z,80.41
2023-04-14T06:04:33.764Z,81.37
2023-04-14T06:07:04.702Z,80.52
2023-04-14T06:09:33.053Z,80.15
2023-04-14T06:12:01.736Z,80.53
2023-04-14T06:14:30.255Z,80.76
2023-04-14T06:17:00.086Z,79.73
2023-04-14T06:19:28.496Z,79.19
2023-04-14T06:21:57.425Z,80.48
2023-04-14T06:24:27.821Z,79.47
2023-04-14T06:26:56.269Z,78.47
2023-04-14T06:29:26.573Z,78.55
2023-04-14T06:31:55.138Z,78.74
2023-04-14T06:34:23.641Z,78.39
2023-04-14T06:36:53.070Z,77.83
2023-04-14T06:39:22.465Z,77.68
2023-04-14T06:41:52.759Z,76.77
2023-04-14T06:44:21.190Z,76.31
2023-04-14T06:46:50.039Z,75.59
2023-04-14T06:49:20.050Z,75.97
2023-04-14T06:51:48.648Z,74.94
2023-04-14T06:54:17.039Z,75.29
2023-04-14T06:56:50.005Z,74.78
2023-04-14T06:59:21.553Z,74.38
2023-04-14T07:01:50.353Z,73.25
2023-04-14T07:04:19.724Z,72.90
2023-04-14T07:06:48.369Z,73.07
2023-04-14T07:09:17.109Z,73.04
2023-04-14T07:11:55.435Z,72.63
2023-04-14T07:14:26.097Z,71.46
2023-04-14T07:16:55.127Z,71.81
2023-04-14T07:19:23.548Z,71.08
2023-04-14T07:21:52.731Z,71.00
2023-04-14T07:24:22.159Z,70.33
2023-04-14T07:26:51.008Z,70.01
2023-04-14T07:29:19.873Z,69.76
2023-04-14T07:31:50.036Z,69.18
2023-04-14T07:34:20.031Z,68.91
2023-04-14T07:36:49.807Z,68.70
2023-04-14T07:39:22.722Z,68.26
2023-04-14T07:41:51.269Z,68.16
2023-04-14T07:44:19.860Z,67.52
2023-04-14T07:46:49.845Z,66.99
2023-04-14T07:49:18.513Z,66.32
2023-04-14T07:51:47.133Z,66.20
2023-04-14T07:54:16.134Z,64.90
2023-04-14T07:56:44.549Z,64.33
2023-04-14T07:59:12.988Z,63.36
2023-04-14T08:01:41.612Z,62.90
2023-04-14T08:04:12.575Z,62.72
2023-04-14T08:06:41.286Z,62.68
2023-04-14T08:09:09.669Z,62.23
2023-04-14T08:11:37.995Z,61.93
2023-04-14T08:14:06.482Z,61.35
2023-04-14T08:16:36.914Z,61.39
2023-04-14T08:19:06.299Z,60.88
2023-04-14T08:21:36.370Z,60.88
2023-04-14T08:24:06.511Z,60.21
2023-04-14T08:26:35.316Z,59.97
2023-04-14T08:29:03.852Z,58.65
2023-04-14T08:31:33.203Z,58.70
2023-04-14T08:34:01.690Z,58.25
2023-04-14T08:36:30.316Z,57.65
2023-04-14T08:39:02.632Z,57.12
2023-04-14T08:41:35.305Z,56.31
2023-04-14T08:44:03.980Z,55.80
2023-04-14T08:46:34.720Z,55.76
2023-04-14T08:49:06.474Z,55.61
2023-04-14T08:51:38.300Z,55.15
2023-04-14T08:54:11.387Z,54.91
2023-04-14T08:56:41.548Z,54.67
2023-04-14T08:59:11.709Z,54.19
2023-04-14T09:01:42.367Z,53.75
2023-04-14T09:04:11.964Z,53.51
2023-04-14T09:06:40.766Z,53.58
2023-04-14T09:09:11.021Z,52.84
2023-04-14T09:11:39.928Z,52.45
2023-04-14T09:14:10.133Z,51.97
2023-04-14T09:16:40.623Z,51.16
2023-04-14T09:19:10.588Z,50.22
2023-04-14T09:21:53.567Z,50.14
2023-04-14T09:24:31.747Z,50.42
2023-04-14T09:27:05.241Z,50.02
2023-04-14T09:29:34.089Z,50.22
2023-04-14T09:32:02.976Z,49.43
2023-04-14T09:34:32.193Z,49.47
2023-04-14T09:37:03.513Z,49.22
2023-04-14T09:39:33.442Z,49.48
2023-04-14T09:42:02.820Z,49.33
2023-04-14T09:44:31.978Z,48.73
2023-04-14T09:47:02.650Z,49.12
2023-04-14T09:49:31.127Z,48.90
2023-04-14T09:52:08.810Z,48.59
2023-04-14T09:54:42.055Z,48.67
2023-04-14T09:57:10.455Z,48.33
2023-04-14T09:59:40.695Z,48.45
2023-04-14T10:02:11.159Z,48.51
2023-04-14T10:04:39.859Z,48.20
2023-04-14T10:07:09.048Z,47.67
2023-04-14T10:09:40.679Z,47.49
2023-04-14T10:12:12.202Z,47.58
2023-04-14T10:14:41.748Z,47.98
2023-04-14T10:17:10.652Z,47.52
2023-04-14T10:19:39.758Z,47.28
2023-04-14T10:22:08.139Z,47.35
2023-04-14T10:24:38.660Z,47.46
2023-04-14T10:27:07.787Z,47.35
2023-04-14T10:29:36.247Z,47.43
2023-04-14T10:32:08.320Z,47.32
2023-04-14T10:34:42.654Z,47.30
2023-04-14T10:37:15.159Z,47.04
2023-04-14T10:39:45.105Z,46.67
2023-04-14T10:42:13.455Z,46.72
2023-04-14T10:44:41.859Z,46.38
2023-04-14T10:47:10.860Z,46.78
2023-04-14T10:49:42.237Z,46.23
2023-04-14T10:52:52.183Z,45.84
2023-04-14T10:55:26.187Z,45.29
2023-04-14T10:58:04.950Z,45.31
2023-04-14T11:00:33.609Z,45.02
2023-04-14T11:03:07.927Z,44.65
2023-04-14T11:05:38.213Z,44.77
2023-04-14T11:08:15.827Z,44.60
2023-04-14T11:10:52.427Z,44.00
2023-04-14T11:13:22.111Z,42.80
2023-04-14T11:15:53.329Z,43.48
2023-04-14T11:18:37.210Z,42.12
2023-04-14T11:21:07.535Z,41.72
2023-04-14T11:23:37.066Z,41.33
2023-04-14T11:26:09.552Z,40.53
2023-04-14T11:28:40.192Z,41.14
2023-04-14T11:31:11.168Z,41.41
2023-04-14T11:33:42.522Z,40.52
2023-04-14T11:36:13.080Z,40.19
2023-04-14T11:38:41.738Z,39.79
2023-04-14T11:41:11.607Z,39.83
2023-04-14T11:43:46.420Z,40.15
2023-04-14T11:46:15.689Z,40.53
2023-04-14T11:48:44.181Z,40.81
2023-04-14T11:51:12.520Z,40.76
2023-04-14T11:53:41.302Z,40.28
2023-04-14T11:56:12.842Z,41.07
2023-04-14T11:58:42.131Z,40.52
2023-04-14T12:01:14.422Z,40.56
2023-04-14T12:03:43.309Z,39.22
2023-04-14T12:06:12.029Z,37.69
2023-04-14T12:08:40.407Z,37.43
2023-04-14T12:11:16.553Z,37.75
2023-04-14T12:13:46.639Z,36.36
2023-04-14T12:16:17.476Z,36.00
2023-04-14T12:18:46.310Z,35.16
2023-04-14T12:21:20.169Z,35.86
2023-04-14T12:23:49.967Z,34.47
2023-04-14T12:26:21.392Z,34.15
2023-04-14T12:28:58.074Z,33.63
2023-04-14T12:31:32.932Z,32.69
2023-04-14T12:34:03.436Z,33.14
2023-04-14T12:36:48.021Z,33.21
2023-04-14T12:39:18.800Z,31.96
2023-04-14T12:41:48.741Z,31.38
2023-04-14T12:44:18.582Z,32.10
2023-04-14T12:46:50.096Z,30.98
2023-04-14T12:49:34.758Z,31.59
2023-04-14T12:52:03.713Z,30.68
2023-04-14T12:54:50.045Z,29.61
2023-04-14T12:57:21.887Z,29.08
2023-04-14T12:59:50.662Z,28.96
2023-04-14T13:02:19.496Z,27.72
2023-04-14T13:04:48.038Z,27.04
2023-04-14T13:07:16.475Z,26.98
2023-04-14T13:09:44.786Z,26.56
2023-04-14T13:12:13.314Z,27.13
2023-04-14T13:14:43.089Z,27.19
2023-04-14T13:17:13.055Z,28.48
2023-04-14T13:19:41.572Z,29.55
2023-04-14T13:22:09.952Z,30.30
2023-04-14T13:24:38.396Z,30.47
2023-04-14T13:27:07.700Z,31.12
2023-04-14T13:29:36.698Z,31.89
2023-04-14T13:32:11.117Z,31.78
2023-04-14T13:34:40.885Z,32.07
2023-04-14T13:37:09.217Z,32.51
2023-04-14T13:39:37.698Z,33.21
2023-04-14T13:42:06.742Z,31.11
2023-04-14T13:44:35.746Z,30.19
2023-04-14T13:47:05.615Z,28.80
2023-04-14T13:49:34.005Z,27.75
2023-04-14T13:52:02.643Z,26.71
2023-04-14T13:54:31.053Z,26.25
2023-04-14T13:56:59.390Z,25.35
2023-04-14T13:59:28.150Z,24.57
2023-04-14T14:01:56.724Z,23.97
2023-04-14T14:04:27.384Z,24.51
2023-04-14T14:06:56.281Z,26.69
2023-04-14T14:09:24.868Z,27.63
2023-04-14T14:11:53.261Z,28.28
2023-04-14T14:14:22.626Z,28.76
2023-04-14T14:16:51.286Z,26.87
2023-04-14T14:19:19.859Z,25.19
2023-04-14T14:21:50.053Z,26.14
2023-04-14T14:24:18.537Z,26.74
2023-04-14T14:26:46.876Z,26.96
2023-04-14T14:29:15.176Z,27.32
2023-04-14T14:31:43.587Z,27.41
2023-04-14T14:34:12.122Z,27.77
2023-04-14T14:36:40.438Z,28.60
2023-04-14T14:39:10.399Z,29.83
2023-04-14T14:41:39.526Z,29.78
2023-04-14T14:44:07.998Z,27.48
2023-04-14T14:46:36.590Z,26.38
2023-04-14T14:49:05.101Z,26.86
2023-04-14T14:51:33.472Z,26.49
2023-04-14T14:54:09.343Z,27.88
2023-04-14T14:56:40.214Z,27.63
2023-04-14T14:59:09.721Z,29.22
2023-04-14T15:01:38.301Z,30.08
2023-04-14T15:04:07.843Z,30.79
2023-04-14T15:06:37.628Z,30.96
2023-04-14T15:09:06.614Z,32.15
2023-04-14T15:11:34.956Z,32.67
2023-04-14T15:14:06.042Z,32.87
2023-04-14T15:16:34.884Z,33.64
2023-04-14T15:21:33.262Z,33.70
2023-04-14T15:24:02.139Z,34.29
2023-04-14T15:26:30.697Z,34.34
2023-04-14T15:28:59.079Z,34.42
2023-04-14T15:31:29.216Z,33.76
2023-04-14T15:34:00.311Z,34.03
2023-04-14T15:36:29.276Z,33.79
2023-04-14T15:38:57.999Z,33.42
2023-04-14T15:41:26.943Z,33.67
2023-04-14T15:43:55.350Z,34.01
2023-04-14T15:46:24.539Z,34.61
2023-04-14T15:48:54.337Z,34.82
2023-04-14T15:51:22.951Z,35.17
2023-04-14T15:53:52.679Z,35.64
2023-04-14T15:56:23.468Z,35.80
2023-04-14T15:58:52.602Z,36.00
2023-04-14T16:01:21.451Z,36.17
2023-04-14T16:03:52.605Z,35.98
2023-04-14T16:06:23.534Z,36.58
2023-04-14T16:08:52.104Z,36.41
2023-04-14T16:11:20.803Z,36.60
2023-04-14T16:13:49.128Z,37.11
2023-04-14T16:16:18.523Z,37.26
2023-04-14T16:18:46.884Z,37.27
2023-04-14T16:21:15.790Z,37.83
2023-04-14T16:23:45.775Z,35.82
2023-04-14T16:26:14.098Z,33.71
2023-04-14T16:28:42.389Z,31.05
2023-04-14T16:31:16.496Z,30.08
2023-04-14T16:33:44.981Z,29.00
2023-04-14T16:36:13.421Z,28.19
2023-04-14T16:38:41.899Z,27.48
2023-04-14T16:41:12.118Z,26.99
2023-04-14T16:43:40.605Z,26.34
2023-04-14T16:46:25.041Z,25.54
2023-04-14T16:48:54.503Z,24.91
2023-04-14T16:51:25.710Z,25.21
2023-04-14T16:53:54.193Z,25.16
2023-04-14T16:56:24.519Z,25.42
2023-04-14T16:58:53.391Z,26.02
2023-04-14T17:01:22.525Z,27.35
2023-04-14T17:03:51.581Z,28.62
2023-04-14T17:06:21.369Z,29.88
2023-04-14T17:08:50.119Z,30.54
2023-04-14T17:11:18.658Z,30.97
2023-04-14T17:13:48.441Z,30.99
2023-04-14T17:16:17.532Z,30.10
2023-04-14T17:18:54.002Z,29.13
2023-04-14T17:21:23.827Z,29.19
2023-04-14T17:23:52.891Z,28.59
2023-04-14T17:26:21.745Z,28.39
2023-04-14T17:28:51.769Z,28.27
2023-04-14T17:31:22.962Z,28.55
2023-04-14T17:33:52.738Z,29.02
2023-04-14T17:36:21.889Z,30.09
2023-04-14T17:38:51.435Z,32.04
2023-04-14T17:41:23.806Z,32.96
2023-04-14T17:43:54.545Z,33.48
2023-04-14T17:46:33.414Z,34.42
2023-04-14T17:49:02.788Z,35.39
2023-04-14T17:51:33.065Z,35.77
2023-04-14T17:54:02.252Z,36.19
2023-04-14T17:56:31.868Z,36.60
2023-04-14T17:59:02.423Z,37.12
2023-04-14T18:01:30.894Z,37.37
2023-04-14T18:04:00.346Z,38.28
2023-04-14T18:06:30.137Z,39.08
2023-04-14T18:08:58.614Z,39.32
2023-04-14T18:11:27.561Z,39.94
2023-04-14T18:13:55.933Z,40.27
2023-04-14T18:16:26.433Z,40.60
2023-04-14T18:18:55.558Z,40.94
2023-04-14T18:21:24.070Z,41.57
2023-04-14T18:26:27.404Z,42.62
2023-04-14T18:28:57.372Z,43.31
2023-04-14T18:31:27.401Z,44.30
2023-04-14T18:33:58.282Z,44.53
2023-04-14T18:36:27.249Z,45.30
2023-04-14T18:38:56.196Z,45.93
2023-04-14T18:41:24.836Z,46.22
2023-04-14T18:43:53.727Z,47.31
2023-04-14T18:46:23.038Z,47.55
2023-04-14T18:48:53.102Z,48.54
2023-04-14T18:51:21.726Z,49.38
2023-04-14T18:53:50.181Z,50.03
2023-04-14T18:56:18.684Z,50.40
2023-04-14T18:58:47.667Z,50.96
2023-04-14T19:01:17.344Z,51.38
2023-04-14T19:03:47.246Z,52.12
2023-04-14T19:06:17.221Z,52.62
2023-04-14T19:08:45.572Z,52.87
2023-04-14T19:11:13.846Z,53.43
2023-04-14T19:13:42.866Z,54.14
2023-04-14T19:16:12.719Z,54.52
2023-04-14T19:18:41.761Z,54.84
2023-04-14T19:21:10.451Z,55.13
2023-04-14T19:23:40.996Z,55.74
2023-04-14T19:26:11.535Z,55.86
2023-04-14T19:28:42.498Z,56.29
2023-04-14T19:31:12.561Z,56.71
2023-04-14T19:33:41.906Z,57.07
2023-04-14T19:36:14.356Z,57.38
2023-04-14T19:38:44.425Z,57.64
2023-04-14T19:41:12.956Z,57.92
2023-04-14T19:43:41.388Z,58.40
2023-04-14T19:46:12.889Z,58.61
2023-04-14T19:48:41.406Z,58.68
2023-04-14T19:51:10.126Z,59.41
2023-04-14T19:53:38.671Z,59.43
2023-04-14T19:56:08.821Z,60.62
2023-04-14T19:58:37.152Z,60.43
2023-04-14T20:01:05.834Z,60.67
2023-04-14T20:03:34.776Z,61.19
2023-04-14T20:06:03.466Z,61.82
2023-04-14T20:08:32.280Z,61.97
2023-04-14T20:11:00.767Z,62.42
2023-04-14T20:13:34.142Z,62.84
2023-04-14T20:16:02.748Z,63.22
2023-04-14T20:18:31.117Z,62.66
2023-04-14T20:20:59.695Z,63.49
2023-04-14T20:23:29.005Z,63.55
2023-04-14T20:25:59.023Z,64.27
2023-04-14T20:28:29.746Z,64.22
2023-04-14T20:30:58.504Z,64.03
2023-04-14T20:33:29.616Z,64.10
2023-04-14T20:36:01.713Z,64.92
2023-04-14T20:38:30.388Z,64.91
2023-04-14T20:40:59.187Z,65.12
2023-04-14T20:43:34.077Z,65.49
2023-04-14T20:46:04.209Z,65.79
2023-04-14T20:48:33.157Z,66.02
2023-04-14T20:51:01.735Z,66.17
2023-04-14T20:53:30.165Z,66.54
2023-04-14T20:55:58.651Z,66.04
2023-04-14T20:58:27.049Z,66.80
2023-04-14T21:00:57.549Z,66.87
2023-04-14T21:03:27.493Z,66.83
2023-04-14T21:05:56.502Z,67.91
2023-04-14T21:08:24.929Z,67.52
2023-04-14T21:11:14.211Z,67.73
2023-04-14T21:15:26.324Z,68.23
2023-04-14T21:16:31.985Z,68.34
2023-04-14T21:19:01.113Z,68.42
2023-04-14T21:21:29.836Z,69.14
2023-04-14T21:23:59.342Z,69.09
2023-04-14T21:26:28.698Z,68.60
2023-04-14T21:28:57.676Z,68.99
2023-04-14T21:31:27.537Z,69.41
2023-04-14T21:33:58.032Z,69.58
2023-04-14T21:36:27.466Z,69.83
2023-04-14T21:38:56.517Z,69.84
2023-04-14T21:41:25.310Z,69.45
2023-04-14T21:43:53.603Z,70.29
2023-04-14T21:46:22.247Z,70.30
2023-04-14T21:48:51.205Z,69.95
2023-04-14T21:51:21.248Z,70.22
2023-04-14T21:53:49.675Z,70.76
2023-04-14T21:56:18.115Z,70.55
2023-04-14T21:58:46.919Z,70.90
2023-04-14T22:01:15.446Z,70.99
2023-04-14T22:03:46.612Z,70.98
2023-04-14T22:06:15.174Z,72.19
2023-04-14T22:08:44.985Z,71.09
2023-04-14T22:11:14.496Z,71.61
2023-04-14T22:13:43.124Z,71.66
2023-04-14T22:16:12.055Z,71.46
2023-04-14T22:18:40.896Z,72.34
2023-04-14T22:21:12.251Z,72.31
2023-04-14T22:23:40.801Z,72.08
2023-04-14T22:26:11.722Z,71.99
2023-04-14T22:28:40.117Z,72.03
2023-04-14T22:31:09.831Z,72.58
2023-04-14T22:33:38.313Z,72.47
2023-04-14T22:36:07.701Z,72.22
2023-04-14T22:38:36.305Z,72.85
2023-04-14T22:41:04.707Z,73.64
2023-04-14T22:43:34.517Z,73.31
2023-04-14T22:46:02.958Z,72.98
2023-04-14T22:48:31.720Z,74.20
2023-04-14T22:51:00.316Z,73.76
2023-04-14T22:53:28.822Z,73.76
2023-04-14T22:55:58.278Z,73.44
2023-04-14T22:58:27.199Z,74.62
2023-04-14T23:00:56.962Z,73.90
2023-04-14T23:03:25.612Z,74.42
2023-04-14T23:05:55.370Z,73.77
2023-04-14T23:08:24.000Z,74.91
2023-04-14T23:10:52.877Z,75.22
2023-04-14T23:13:21.659Z,74.63
2023-04-14T23:15:52.722Z,74.62
2023-04-14T23:18:24.526Z,74.34
2023-04-14T23:20:53.152Z,74.85
2023-04-14T23:23:21.582Z,75.10
2023-04-14T23:25:50.213Z,75.89
2023-04-14T23:28:18.640Z,75.17
2023-04-14T23:30:47.110Z,75.54
2023-04-14T23:33:15.655Z,76.10
2023-04-14T23:35:45.476Z,75.50
2023-04-14T23:38:14.031Z,75.64
2023-04-14T23:40:42.381Z,75.65
2023-04-14T23:43:11.487Z,75.67
2023-04-14T23:45:39.940Z,76.46
2023-04-14T23:48:08.857Z,76.30
2023-04-14T23:51:02.218Z,76.56
2023-04-14T23:53:28.212Z,76.72
2023-04-14T23:55:56.616Z,77.14
2023-04-14T23:58:28.035Z,77.26
